KEYO2: Keystone Lake

Data processed at Thu Jan 04 2018 23:03


All information presented herein is the property of the government of the United States of America and may be revised or deleted at any time without prior notice.
Dissemination of this information without the expressed written consent of the Public Affairs Office, Tulsa District U.S. Army Corps of Engineers is strictly prohibited.
These data are gathered electronically and, as presented, have not undergone any form of quality control. These data are not guaranteed to be valid or correct.
Go to home page.
Go to station list.

Upstream stations:

Downstream station:
Previous Day
Next Day
Current Day
    
SHEF ID:       KEYO2     Keystone Lake
STATION TYPE:  Reservoir
Normal Pool:  Bottom =   706.00, Top =   723.00

               PRECIP ELEVATION   STORAGE   TW-ELEV    INFLOW   RELEASE  AIR-TEMP  WIND-DIRWIND-SPEED REL-HUMID SOLAR-RAD   VOLTAGE  BAT-LOAD
                   in        ft     ac-ft        ft       cfs       cfs         F       deg       mph         %      W/m2      volt      volt
              Ccp-Rev   Ccp-Rev   Ccp-Rev   Ccp-Rev  Regi-Rev  Regi-Rev   Ccp-Rev   Ccp-Rev   Ccp-Rev   Ccp-Rev   Ccp-Rev   Ccp-Rev   Ccp-Rev
(US/Central)
01/02 00:00      0.00    720.01    383299    638.40        99         0     12.00     64.80      1.32     54.42      0.00     13.65     13.30
01/02 01:00      0.00    720.00    383140    637.99       112         0     13.21     82.00      2.65     56.50      0.00     13.65     13.30
01/02 02:00      0.00    720.03    383618    637.82       272         0     13.21     78.00      1.88     58.09      0.00     13.65     13.30
01/02 03:00      0.00    720.02    383459    637.74       394         0     13.21     73.70      2.06     57.60      0.00     13.65     13.30
01/02 04:00      0.00    720.05    383937    637.69       381         0     13.10     51.30      1.59     56.93      0.00     13.66     11.72
01/02 05:00      0.00    720.03    383618    637.66       376         0     13.55     62.40      1.57     57.11      0.00     13.65     13.24
01/02 06:00      0.00    719.99    382984    639.12       371       600     13.42     57.50      3.01     58.58      0.00     13.66     13.30
01/02 07:00      0.00    719.99    382984    642.72       186     11800     13.32     86.80      3.29     60.53      0.00     13.65     13.30
01/02 08:00      0.00    719.90    381580    642.82        24     11800     13.64     34.20      2.51     61.38      2.00     13.65     13.30
01/02 09:00      0.00    719.85    380800    642.95        24     11800     14.41     46.00      2.10     60.47     32.00     13.65     13.24
01/02 10:00      0.00    719.78    379708    642.05        16     11800     15.85     75.40      2.30     59.31     75.00     13.65     13.30
01/02 11:00      0.00    719.79    379864    639.40         8       600     18.61     75.50      1.21     54.85    131.00     13.65     13.30
01/02 12:00      0.00    719.77    379552    638.40        46         0     18.61     77.80      0.86     56.63    226.00     13.65     13.30
01/02 13:00      0.00    719.77    379552    637.99       109         0     20.80    333.70      0.89     56.44    213.00     13.65     13.30
01/02 14:00      0.00    719.79    379864    637.82       424         0     21.45    301.70      3.40     51.67    182.00     13.65     13.30
01/02 15:00      0.00    719.76    379396    637.74       738         0     23.32    296.20      4.69     48.50    102.00     13.66     11.66
01/02 16:00      0.00    719.81    380176    637.69       858         0     23.77    265.80      2.46     44.95    118.00     13.65     13.30
01/02 17:00      0.00    719.79    379864    637.66      2430         0     23.99    259.80      4.22     47.15     26.00     13.65     13.30
01/02 18:00      0.00    719.79    379864    637.64      3984       600     23.88    273.40      6.53     46.05      2.00     13.65     13.30
01/02 19:00      0.00    719.79    379864    637.62      4047     11800     23.67    248.10      6.87     47.34      0.00     13.65     13.30
01/02 20:00      0.00    719.81    380176    637.62      3733       600     22.78    231.10      5.99     48.74      0.00     13.65     13.30
01/02 21:00      0.00    719.82    380332    637.61      3613         0     21.90    241.70      6.19     52.16      0.00     13.65     13.30
01/02 22:00      0.00    719.82    380332    637.61      1995         0     21.24    263.20      9.11     53.14      0.00     13.65     13.30
01/02 23:00      0.00    719.82    380332    637.60       378         0     20.14    262.00      8.60     56.44      0.00     13.65     13.30